Time;durP1;ratioP1;P1;durP2;ratioP2;P2;SDS_P1;SDS_P2;PMS_P1;PMS_P2;Temp;Humidity;BMP_temperature;BMP_pressure;BME280_temperature;BME280_humidity;BME280_pressure;Samples;Min_cycle;Max_cycle;Signal;HPM_P1;HPM_P2
2020/12/21 00:02:53;;;;;;;6.75;4.25;;;;;;;8.28;84.71;100940.31;8481900;33;20547;-71
2020/12/21 00:07:55;;;;;;;7.50;4.65;;;;;;;8.16;84.50;100936.44;8482292;33;21957;-71
2020/12/21 00:12:58;;;;;;;9.20;4.30;;;;;;;8.19;84.61;100934.47;8482530;33;20224;-71
2020/12/21 00:18:01;;;;;;;9.40;4.00;;;;;;;8.21;84.40;100931.75;8480306;33;20188;-71
2020/12/21 00:23:03;;;;;;;9.43;4.93;;;;;;;8.21;83.71;100929.09;8475022;33;20149;-71
2020/12/21 00:28:07;;;;;;;8.48;4.45;;;;;;;8.16;83.99;100945.28;8474524;33;20411;-71
2020/12/21 00:33:09;;;;;;;8.25;4.45;;;;;;;8.12;83.82;100941.06;8474007;33;20220;-71
2020/12/21 00:38:11;;;;;;;5.68;3.65;;;;;;;8.17;83.53;100933.72;8473420;33;20195;-72
2020/12/21 00:43:15;;;;;;;7.63;3.70;;;;;;;8.13;83.73;100926.81;8473661;33;20499;-72
2020/12/21 00:48:17;;;;;;;8.13;3.95;;;;;;;8.14;83.29;100933.84;8474749;33;20465;-71
2020/12/21 00:53:20;;;;;;;7.07;3.58;;;;;;;8.07;83.37;100945.72;8449326;33;20996;-72
2020/12/21 00:58:23;;;;;;;9.13;3.58;;;;;;;8.06;83.16;100941.31;8474753;33;20133;-72
2020/12/21 01:03:25;;;;;;;6.78;3.45;;;;;;;7.96;83.10;100943.56;8473987;33;20203;-71
2020/12/21 01:08:28;;;;;;;8.23;3.25;;;;;;;8.13;82.73;100936.59;8472607;33;21306;-71
2020/12/21 01:13:31;;;;;;;5.47;3.47;;;;;;;8.13;82.16;100931.28;8458764;33;20918;-71
2020/12/21 01:18:34;;;;;;;8.95;3.80;;;;;;;8.05;82.46;100931.63;8455705;33;20414;-71
2020/12/21 01:23:36;;;;;;;8.23;3.28;;;;;;;8.02;82.09;100935.28;8457875;33;20436;-71
2020/12/21 01:28:40;;;;;;;8.00;3.15;;;;;;;8.04;82.27;100937.91;8463746;33;20184;-72
2020/12/21 01:33:43;;;;;;;6.28;3.33;;;;;;;7.94;82.04;100944.59;8460117;33;20729;-72
2020/12/21 01:38:45;;;;;;;7.07;3.55;;;;;;;7.99;81.56;100938.09;8470201;33;20477;-71
2020/12/21 01:43:48;;;;;;;8.68;3.40;;;;;;;7.98;81.94;100932.84;8468285;33;20676;-71
2020/12/21 01:48:51;;;;;;;12.32;3.33;;;;;;;7.96;81.82;100934.75;8456648;33;20541;-72
2020/12/21 01:53:55;;;;;;;7.22;4.30;;;;;;;7.86;82.41;100939.63;8460166;33;20514;-72
2020/12/21 01:58:58;;;;;;;8.93;3.50;;;;;;;7.76;82.05;100933.88;8466913;33;20487;-72
2020/12/21 02:04:00;;;;;;;6.40;4.00;;;;;;;7.80;82.14;100939.91;8474429;33;20740;-71
2020/12/21 02:09:04;;;;;;;7.88;4.40;;;;;;;7.71;82.16;100932.38;8475460;33;20512;-71
2020/12/21 02:14:07;;;;;;;13.40;4.30;;;;;;;7.79;82.05;100940.84;8477435;33;20408;-72
2020/12/21 02:19:09;;;;;;;8.93;3.88;;;;;;;7.76;81.95;100932.97;8481368;33;20175;-72
2020/12/21 02:24:13;;;;;;;8.50;3.17;;;;;;;7.72;81.56;100944.72;8483918;33;20443;-72
2020/12/21 02:29:16;;;;;;;9.85;3.85;;;;;;;7.80;81.30;100950.53;8486734;33;20196;-71
2020/12/21 02:34:19;;;;;;;4.63;3.05;;;;;;;7.79;80.88;100935.53;8485617;33;20410;-71
2020/12/21 02:39:24;;;;;;;6.85;3.35;;;;;;;7.83;80.57;100936.25;8481982;33;21075;-71
2020/12/21 02:44:26;;;;;;;8.52;3.25;;;;;;;7.78;80.92;100926.66;8479277;33;20418;-71
2020/12/21 02:49:28;;;;;;;9.68;3.00;;;;;;;7.73;80.71;100943.78;8476784;33;20129;-71
2020/12/21 02:54:31;;;;;;;13.25;3.28;;;;;;;7.91;80.11;100945.59;8476730;33;20180;-71
2020/12/21 02:59:34;;;;;;;10.30;3.80;;;;;;;7.91;80.37;100950.91;8477438;33;20457;-71
2020/12/21 03:04:36;;;;;;;8.88;3.35;;;;;;;7.93;79.99;100935.75;8479030;33;20435;-71
2020/12/21 03:09:39;;;;;;;6.32;3.05;;;;;;;7.76;80.28;100928.56;8482703;33;20137;-71
2020/12/21 03:14:41;;;;;;;6.10;3.75;;;;;;;7.69;80.55;100940.41;8485417;33;20203;-71
2020/12/21 03:19:44;;;;;;;6.75;3.00;;;;;;;7.56;80.55;100937.44;8488193;33;21037;-71
2020/12/21 03:24:47;;;;;;;9.73;4.03;;;;;;;7.56;80.86;100939.22;8486599;33;20437;-71
2020/12/21 03:29:49;;;;;;;5.75;3.75;;;;;;;7.52;80.82;100946.50;8482324;33;20180;-71
2020/12/21 03:34:52;;;;;;;5.30;3.60;;;;;;;7.64;80.22;100934.44;8483485;33;20425;-72
2020/12/21 03:39:55;;;;;;;4.72;3.03;;;;;;;7.49;80.99;100935.13;8483940;33;20260;-71
2020/12/21 03:44:58;;;;;;;5.28;3.05;;;;;;;7.51;80.89;100935.91;8482148;33;20510;-71
2020/12/21 03:50:00;;;;;;;6.85;3.67;;;;;;;7.46;81.13;100937.91;8481127;33;20892;-71
2020/12/21 03:55:06;;;;;;;7.88;3.05;;;;;;;7.48;81.26;100939.56;8481090;33;21906;-71
2020/12/21 04:00:09;;;;;;;5.70;3.05;;;;;;;7.41;81.54;100937.28;8480597;33;20423;-71
2020/12/21 04:05:16;;;;;;;7.63;3.22;;;;;;;7.39;81.41;100942.66;8482694;33;20565;-71
2020/12/21 04:10:19;;;;;;;7.68;3.50;;;;;;;7.32;81.01;100947.41;8482920;33;20423;-71
2020/12/21 04:15:21;;;;;;;7.78;3.45;;;;;;;7.37;81.47;100947.16;8485723;33;20493;-71
2020/12/21 04:20:24;;;;;;;7.93;3.00;;;;;;;7.34;81.66;100942.84;8453873;33;20446;-71
2020/12/21 04:25:27;;;;;;;7.55;3.65;;;;;;;7.31;81.49;100927.03;8478690;33;20144;-71
2020/12/21 04:30:29;;;;;;;6.05;2.90;;;;;;;7.26;81.64;100931.69;8479163;33;20556;-71
2020/12/21 04:35:32;;;;;;;8.45;3.47;;;;;;;7.23;81.76;100933.63;8480326;33;20422;-71
2020/12/21 04:40:35;;;;;;;9.68;3.35;;;;;;;7.19;81.77;100940.03;8479811;33;20431;-71
2020/12/21 04:45:42;;;;;;;8.10;3.38;;;;;;;7.18;81.82;100936.47;8480044;33;20433;-71
2020/12/21 04:50:45;;;;;;;8.63;3.60;;;;;;;7.27;81.36;100937.91;8479746;33;20447;-71
2020/12/21 04:55:48;;;;;;;6.80;4.00;;;;;;;7.26;81.56;100928.19;8480211;33;20437;-71
2020/12/21 05:00:50;;;;;;;7.13;3.42;;;;;;;7.33;80.79;100925.19;8478174;33;21480;-71
2020/12/21 05:05:53;;;;;;;6.30;3.70;;;;;;;7.32;80.86;100922.56;8477875;33;20620;-71
2020/12/21 05:11:00;;;;;;;6.25;3.35;;;;;;;7.28;80.99;100918.34;8454989;33;20417;-71
2020/12/21 05:16:03;;;;;;;13.73;4.25;;;;;;;7.24;81.29;100911.44;8483090;33;20420;-71
2020/12/21 05:21:08;;;;;;;6.90;3.17;;;;;;;7.26;81.36;100905.13;8479792;33;20227;-71
2020/12/21 05:26:12;;;;;;;6.45;4.30;;;;;;;7.30;81.11;100930.63;8478748;33;20432;-71
2020/12/21 05:31:15;;;;;;;5.13;3.38;;;;;;;7.33;80.50;100919.88;8478666;33;21037;-71
2020/12/21 05:36:20;;;;;;;6.95;3.95;;;;;;;7.44;80.45;100922.03;8480325;33;21332;-71
2020/12/21 05:41:23;;;;;;;4.68;2.88;;;;;;;7.41;80.26;100916.88;8480514;33;20494;-71
2020/12/21 05:46:26;;;;;;;4.95;3.40;;;;;;;7.41;80.45;100921.31;8485290;33;20430;-71
2020/12/21 05:51:31;;;;;;;4.70;3.38;;;;;;;7.37;80.57;100909.09;8458631;33;20431;-71
2020/12/21 05:56:36;;;;;;;6.57;4.38;;;;;;;7.39;80.59;100913.41;8483696;33;20447;-71
2020/12/21 06:01:39;;;;;;;5.18;3.33;;;;;;;7.43;80.56;100916.78;8484101;33;20224;-71
2020/12/21 06:06:44;;;;;;;9.63;3.30;;;;;;;7.49;79.73;100912.06;8486264;33;20918;-71
2020/12/21 06:11:47;;;;;;;9.93;2.90;;;;;;;7.55;79.75;100916.25;8484376;33;20148;-73
2020/12/21 06:16:51;;;;;;;9.07;3.63;;;;;;;7.51;79.43;100909.31;8427183;33;20150;-71
2020/12/21 06:21:54;;;;;;;13.20;3.08;;;;;;;7.54;79.02;100910.06;8474029;33;20935;-71
2020/12/21 06:26:58;;;;;;;5.82;3.20;;;;;;;7.46;78.70;100912.22;8484741;33;20529;-72
2020/12/21 06:32:04;;;;;;;6.47;2.97;;;;;;;7.50;78.55;100913.78;8482931;33;20530;-71
2020/12/21 06:37:09;;;;;;;4.90;3.40;;;;;;;7.43;78.82;100911.47;8485407;33;20451;-69
2020/12/21 06:42:15;;;;;;;7.45;2.70;;;;;;;7.47;78.54;100910.41;8484843;33;20196;-69
2020/12/21 06:47:17;;;;;;;7.85;3.13;;;;;;;7.53;78.42;100921.63;8489521;33;20149;-69
2020/12/21 06:52:20;;;;;;;8.48;3.00;;;;;;;7.54;78.22;100909.19;8486079;33;20518;-69
2020/12/21 06:57:23;;;;;;;5.85;2.63;;;;;;;7.48;78.32;100912.13;8484982;33;20157;-69
2020/12/21 07:02:29;;;;;;;5.93;2.65;;;;;;;7.46;77.89;100909.56;8484556;33;20299;-69
2020/12/21 07:07:31;;;;;;;4.88;2.45;;;;;;;7.50;77.89;100913.78;8486046;33;20225;-70
2020/12/21 07:12:35;;;;;;;7.25;3.10;;;;;;;7.53;77.81;100910.13;8488611;33;21176;-70
2020/12/21 07:17:37;;;;;;;9.60;2.75;;;;;;;7.50;77.69;100904.94;8500326;33;20423;-70
2020/12/21 07:22:43;;;;;;;7.90;2.95;;;;;;;7.56;77.82;100921.47;8493562;33;20424;-70
2020/12/21 07:27:48;;;;;;;7.57;2.70;;;;;;;7.54;77.31;100919.81;8484152;33;20470;-70
2020/12/21 07:32:50;;;;;;;2.40;2.15;;;;;;;7.68;77.14;100911.19;8482984;33;20414;-70
2020/12/21 07:37:53;;;;;;;5.85;2.63;;;;;;;7.73;76.65;100903.88;8483325;33;20148;-70
2020/12/21 07:43:02;;;;;;;7.68;3.22;;;;;;;7.81;76.17;100899.06;8483565;33;20585;-70
2020/12/21 07:48:06;;;;;;;5.53;2.00;;;;;;;7.69;75.58;100903.16;8462893;33;20469;-70
2020/12/21 07:53:08;;;;;;;7.53;3.05;;;;;;;7.78;75.47;100910.69;8487076;33;20429;-70
2020/12/21 07:58:15;;;;;;;9.85;3.58;;;;;;;7.74;75.40;100909.13;8490860;33;20187;-70
2020/12/21 08:03:20;;;;;;;4.65;2.13;;;;;;;7.77;75.09;100908.13;8500785;33;21132;-69
2020/12/21 08:08:26;;;;;;;6.10;2.75;;;;;;;7.86;74.98;100905.03;8488897;33;20188;-70
2020/12/21 08:13:29;;;;;;;4.78;1.92;;;;;;;8.15;73.79;100910.78;8489054;33;20145;-69
2020/12/21 08:18:32;;;;;;;7.50;2.55;;;;;;;8.50;72.52;100917.06;8502625;33;21309;-69
2020/12/21 08:23:34;;;;;;;2.92;1.95;;;;;;;8.44;72.54;100907.56;8496314;33;20926;-70
2020/12/21 08:28:37;;;;;;;5.60;2.42;;;;;;;8.31;72.40;100909.09;8496162;33;20729;-70
2020/12/21 08:33:56;;;;;;;4.85;2.70;;;;;;;8.29;72.19;100908.28;8489443;33;20410;-70
2020/12/21 08:39:16;;;;;;;5.57;2.65;;;;;;;8.34;72.14;100910.75;8486769;33;20179;-70
2020/12/21 08:44:23;;;;;;;3.85;2.40;;;;;;;8.51;71.61;100894.81;8485337;33;20199;-69
2020/12/21 08:49:28;;;;;;;5.03;3.00;;;;;;;9.08;69.69;100895.44;8492068;33;20487;-69
2020/12/21 08:54:31;;;;;;;5.47;2.45;;;;;;;9.41;68.94;100891.91;8498109;33;21089;-69
2020/12/21 08:59:34;;;;;;;7.03;2.72;;;;;;;9.66;67.98;100890.59;8507284;33;20328;-70
2020/12/21 09:04:37;;;;;;;3.85;2.22;;;;;;;9.90;66.81;100896.34;8508368;33;20539;-69
2020/12/21 09:09:40;;;;;;;4.13;2.45;;;;;;;10.50;66.16;100899.16;8506246;33;20428;-69
2020/12/21 09:14:43;;;;;;;4.43;2.30;;;;;;;10.27;65.50;100904.97;8506151;33;20194;-69
2020/12/21 09:19:45;;;;;;;4.78;2.90;;;;;;;10.15;66.06;100887.84;8505780;33;21500;-69
2020/12/21 09:24:49;;;;;;;4.72;2.22;;;;;;;10.22;66.04;100870.50;8504829;33;21644;-70
2020/12/21 09:29:52;;;;;;;5.70;2.83;;;;;;;10.28;65.65;100870.16;8504692;33;20431;-69
2020/12/21 09:34:54;;;;;;;5.57;2.25;;;;;;;10.44;64.92;100865.66;8505059;33;20441;-70
2020/12/21 09:39:56;;;;;;;4.72;2.08;;;;;;;10.36;65.46;100865.25;8507432;33;20203;-69
2020/12/21 09:45:00;;;;;;;7.95;2.40;;;;;;;10.65;65.39;100857.34;8510357;33;20452;-70
2020/12/21 09:50:02;;;;;;;6.47;2.40;;;;;;;11.03;64.14;100864.88;8508299;33;20433;-69
2020/12/21 09:55:06;;;;;;;6.53;1.90;;;;;;;10.98;63.81;100858.94;8505933;33;20502;-70
2020/12/21 10:00:09;;;;;;;7.07;2.80;;;;;;;10.97;63.88;100851.84;8504216;33;20145;-69
2020/12/21 10:05:12;;;;;;;5.07;2.45;;;;;;;10.85;64.91;100843.63;8505320;33;20497;-70
2020/12/21 10:10:14;;;;;;;3.78;2.70;;;;;;;10.99;64.19;100845.44;8507705;33;20445;-69
2020/12/21 10:15:18;;;;;;;4.45;2.30;;;;;;;10.27;65.58;100835.53;8510346;33;20207;-70
2020/12/21 10:20:21;;;;;;;3.08;2.20;;;;;;;9.86;67.10;100838.75;8509937;33;20186;-70
2020/12/21 10:25:23;;;;;;;8.23;2.55;;;;;;;9.55;68.02;100822.66;8511797;33;20442;-70
2020/12/21 10:30:26;;;;;;;4.80;2.40;;;;;;;9.49;68.76;100811.50;8506820;33;20157;-70
2020/12/21 10:35:30;;;;;;;3.42;2.45;;;;;;;9.48;68.93;100797.25;8506165;33;20165;-70
2020/12/21 10:40:32;;;;;;;4.22;2.40;;;;;;;9.49;68.70;100783.00;8506878;33;20655;-70
2020/12/21 10:45:35;;;;;;;3.15;2.30;;;;;;;9.75;68.14;100767.31;8501768;33;20691;-69
2020/12/21 10:50:38;;;;;;;6.72;3.05;;;;;;;9.95;67.45;100774.16;8509153;33;20487;-70
2020/12/21 10:55:40;;;;;;;3.22;2.58;;;;;;;10.07;67.38;100761.94;8500020;33;20400;-70
2020/12/21 11:00:45;;;;;;;5.22;2.60;;;;;;;10.11;67.15;100755.44;8493243;33;20193;-70
2020/12/21 11:05:48;;;;;;;7.07;3.60;;;;;;;10.12;67.32;100766.06;8505341;33;20624;-70
2020/12/21 11:10:50;;;;;;;5.30;3.63;;;;;;;10.20;67.05;100752.22;8504479;33;20180;-70
2020/12/21 11:15:54;;;;;;;7.40;3.53;;;;;;;10.23;66.77;100746.72;8504326;33;20502;-69
2020/12/21 11:20:58;;;;;;;7.45;3.53;;;;;;;10.33;66.54;100728.34;8498834;33;20946;-70
2020/12/21 11:26:00;;;;;;;4.03;2.92;;;;;;;10.32;66.66;100723.97;8488845;33;20184;-69
2020/12/21 11:31:03;;;;;;;4.53;2.58;;;;;;;10.37;66.57;100717.41;8465349;33;20550;-69
2020/12/21 11:36:06;;;;;;;6.47;2.78;;;;;;;10.38;66.65;100712.91;8489425;33;20464;-70
2020/12/21 11:41:08;;;;;;;3.17;2.03;;;;;;;10.36;66.25;100704.97;8487941;33;20466;-69
2020/12/21 11:46:12;;;;;;;4.40;2.30;;;;;;;10.35;66.75;100702.41;8487445;33;20429;-69
2020/12/21 11:51:17;;;;;;;4.72;2.50;;;;;;;10.27;67.05;100693.97;8486818;33;20221;-69
2020/12/21 11:56:20;;;;;;;3.72;2.55;;;;;;;10.31;66.54;100682.19;8487267;33;20153;-69
2020/12/21 12:01:23;;;;;;;6.47;2.40;;;;;;;10.33;66.82;100678.47;8500295;33;20220;-69
2020/12/21 12:06:26;;;;;;;4.93;2.45;;;;;;;10.43;66.79;100660.94;8502582;33;20530;-69
2020/12/21 12:11:28;;;;;;;5.75;2.08;;;;;;;10.48;66.90;100657.13;8501388;33;20975;-70
2020/12/21 12:16:31;;;;;;;3.10;1.98;;;;;;;10.43;66.76;100649.41;8501769;33;20302;-69
2020/12/21 12:21:33;;;;;;;6.07;2.40;;;;;;;10.35;67.85;100644.53;8502996;33;20149;-70
2020/12/21 12:26:36;;;;;;;1.83;1.73;;;;;;;10.16;68.33;100644.75;8504923;33;20587;-69
2020/12/21 12:31:39;;;;;;;5.35;2.03;;;;;;;10.20;68.52;100632.94;8501391;33;21188;-70
2020/12/21 12:36:43;;;;;;;4.55;1.90;;;;;;;10.32;68.70;100626.00;8495266;33;20148;-69
2020/12/21 12:41:45;;;;;;;4.30;2.50;;;;;;;10.37;68.54;100628.41;8484353;33;20478;-70
2020/12/21 12:46:48;;;;;;;8.10;3.90;;;;;;;10.37;68.55;100626.59;8482843;33;20228;-69
2020/12/21 12:51:54;;;;;;;3.50;2.70;;;;;;;10.37;68.11;100618.59;8481367;33;20173;-69
2020/12/21 12:56:56;;;;;;;5.32;2.50;;;;;;;10.33;68.23;100602.84;8480724;33;20695;-70
2020/12/21 13:02:00;;;;;;;3.08;1.90;;;;;;;10.28;68.31;100591.56;8479024;33;21496;-69
2020/12/21 13:07:02;;;;;;;3.72;2.40;;;;;;;10.39;68.85;100589.09;8484752;33;20208;-70
2020/12/21 13:12:05;;;;;;;2.95;2.40;;;;;;;10.30;68.77;100584.34;8483140;33;20209;-69
2020/12/21 13:17:09;;;;;;;5.13;2.47;;;;;;;10.28;69.50;100575.56;8478176;33;20411;-69
2020/12/21 13:22:31;;;;;;;5.18;3.60;;;;;;;10.23;70.19;100570.50;8477437;33;20862;-69
2020/12/21 13:27:34;;;;;;;5.47;4.40;;;;;;;10.21;70.13;100561.72;8479000;33;20436;-69
2020/12/21 13:32:37;;;;;;;8.73;4.78;;;;;;;10.23;70.56;100539.28;8479180;33;20137;-69
2020/12/21 13:37:40;;;;;;;7.18;3.60;;;;;;;10.21;70.58;100529.66;8482294;33;20149;-69
2020/12/21 13:42:43;;;;;;;7.55;3.88;;;;;;;10.31;70.57;100525.50;8479330;33;20869;-69
2020/12/21 13:47:46;;;;;;;5.85;2.90;;;;;;;10.31;70.03;100521.94;8479872;33;20433;-69
2020/12/21 13:52:48;;;;;;;5.80;3.85;;;;;;;10.35;70.59;100521.66;8478731;33;20442;-69
2020/12/21 13:57:50;;;;;;;4.80;2.88;;;;;;;10.29;71.28;100524.72;8478757;33;20182;-70
2020/12/21 14:02:54;;;;;;;4.68;3.00;;;;;;;10.15;72.00;100511.38;8483513;33;20419;-70
2020/12/21 14:07:56;;;;;;;5.03;2.70;;;;;;;10.06;72.73;100504.78;8470051;33;20422;-71
2020/12/21 14:12:58;;;;;;;8.20;3.55;;;;;;;9.91;74.16;100490.59;8505439;33;21901;-70
2020/12/21 14:18:02;;;;;;;7.18;2.60;;;;;;;9.76;76.10;100481.72;8490424;33;20509;-70
2020/12/21 14:23:04;;;;;;;3.20;2.67;;;;;;;9.67;76.88;100474.28;8483752;33;20160;-71
2020/12/21 14:28:06;;;;;;;8.95;3.05;;;;;;;9.63;78.08;100461.25;8479098;33;20172;-70
2020/12/21 14:33:10;;;;;;;6.80;3.67;;;;;;;9.52;78.50;100438.75;8478094;33;20428;-70
2020/12/21 14:38:12;;;;;;;6.78;3.65;;;;;;;9.42;78.48;100450.06;8481011;33;21624;-70
2020/12/21 14:43:15;;;;;;;9.70;3.97;;;;;;;9.44;79.21;100432.19;8479126;33;20629;-70
2020/12/21 14:48:18;;;;;;;7.13;3.70;;;;;;;9.23;79.90;100424.53;8477244;33;20851;-70
2020/12/21 14:53:20;;;;;;;7.00;2.97;;;;;;;9.11;80.30;100407.47;8476653;33;20444;-72
2020/12/21 14:58:22;;;;;;;7.60;2.83;;;;;;;9.11;80.42;100395.97;8478982;33;20576;-70
2020/12/21 15:03:26;;;;;;;8.45;2.80;;;;;;;9.05;80.21;100396.31;8483336;33;20441;-71
2020/12/21 15:08:28;;;;;;;6.53;4.00;;;;;;;9.07;79.92;100375.75;8479280;33;20416;-71
2020/12/21 15:13:31;;;;;;;10.38;4.03;;;;;;;8.97;80.09;100369.25;8481621;33;20180;-71
2020/12/21 15:18:35;;;;;;;7.53;4.35;;;;;;;8.98;79.95;100355.00;8480038;33;20146;-71
2020/12/21 15:23:38;;;;;;;6.90;3.83;;;;;;;8.98;79.49;100352.34;8479866;33;20188;-71
2020/12/21 15:28:41;;;;;;;9.88;4.65;;;;;;;9.08;79.03;100354.34;8481071;33;20570;-71
2020/12/21 15:33:46;;;;;;;7.53;4.38;;;;;;;9.09;78.77;100340.06;8478535;33;20701;-70
2020/12/21 15:38:49;;;;;;;9.52;5.68;;;;;;;9.19;78.90;100315.50;8474261;33;20991;-71
2020/12/21 15:43:51;;;;;;;9.15;4.65;;;;;;;9.17;78.73;100314.75;8467699;33;20149;-71
2020/12/21 15:48:56;;;;;;;8.55;4.57;;;;;;;9.27;78.51;100306.09;8468685;33;20838;-70
2020/12/21 15:53:58;;;;;;;12.95;5.60;;;;;;;9.35;78.68;100300.25;8470094;33;20416;-73
2020/12/21 15:59:01;;;;;;;10.95;5.13;;;;;;;9.30;77.93;100305.06;8470564;33;20530;-71
2020/12/21 16:04:05;;;;;;;11.55;6.13;;;;;;;9.43;78.04;100289.97;8470074;33;21209;-71
2020/12/21 16:09:08;;;;;;;12.23;6.28;;;;;;;9.44;77.58;100270.34;8472441;33;21205;-71
2020/12/21 16:14:10;;;;;;;12.30;6.32;;;;;;;9.47;77.87;100270.16;8474528;33;20444;-72
2020/12/21 16:19:14;;;;;;;11.95;5.53;;;;;;;9.37;79.05;100265.50;8472896;33;20239;-72
2020/12/21 16:24:18;;;;;;;9.05;5.85;;;;;;;9.17;80.27;100251.63;8440600;33;21098;-72
2020/12/21 16:29:20;;;;;;;11.18;5.88;;;;;;;9.02;81.32;100236.59;8449980;33;20630;-72
2020/12/21 16:34:24;;;;;;;12.13;5.70;;;;;;;9.00;81.45;100228.72;8437827;33;20577;-72
2020/12/21 16:39:26;;;;;;;15.73;6.82;;;;;;;9.00;81.73;100231.38;8464111;33;20488;-73
2020/12/21 16:44:28;;;;;;;11.82;5.50;;;;;;;8.78;82.47;100213.22;8459487;33;20149;-73
2020/12/21 16:49:31;;;;;;;13.05;6.68;;;;;;;8.82;82.82;100206.72;8485522;33;20159;-72
2020/12/21 16:54:34;;;;;;;12.60;6.95;;;;;;;8.82;83.20;100181.91;8450655;33;20193;-72
2020/12/21 16:59:36;;;;;;;13.60;5.80;;;;;;;8.86;83.24;100183.44;8486791;33;21585;-72
2020/12/21 17:04:53;;;;;;;13.35;7.40;;;;;;;8.81;83.63;100175.72;8499021;33;20272;-73
2020/12/21 17:09:55;;;;;;;13.70;6.13;;;;;;;8.73;83.50;100175.34;8501852;33;20203;-72
2020/12/21 17:14:58;;;;;;;14.18;6.00;;;;;;;8.80;83.32;100165.16;8502219;33;20419;-72
2020/12/21 17:20:01;;;;;;;10.53;6.77;;;;;;;8.84;83.05;100146.22;8485864;33;20468;-73
2020/12/21 17:25:04;;;;;;;11.05;5.90;;;;;;;8.89;82.79;100157.44;8472008;33;20160;-73
2020/12/21 17:30:07;;;;;;;12.57;6.57;;;;;;;8.91;82.98;100144.00;8502409;33;20436;-73
2020/12/21 17:35:10;;;;;;;13.27;6.20;;;;;;;8.89;83.04;100138.81;8494088;33;20149;-73
2020/12/21 17:40:12;;;;;;;13.02;6.45;;;;;;;8.97;82.45;100137.44;8469464;33;20890;-72
2020/12/21 17:45:15;;;;;;;12.27;6.10;;;;;;;8.91;82.66;100109.38;8491962;33;20425;-72
2020/12/21 17:50:18;;;;;;;13.27;6.97;;;;;;;8.99;82.71;100111.56;8489960;33;20129;-72
2020/12/21 17:55:20;;;;;;;11.63;6.22;;;;;;;8.95;82.87;100094.91;8463334;33;20139;-72
2020/12/21 18:00:23;;;;;;;10.07;5.68;;;;;;;8.98;82.75;100085.88;8490865;33;21429;-72
2020/12/21 18:05:26;;;;;;;10.20;6.10;;;;;;;8.95;83.21;100062.09;8494039;33;20149;-72
2020/12/21 18:10:28;;;;;;;12.63;6.50;;;;;;;9.02;83.03;100044.72;8503474;33;20153;-72
2020/12/21 18:15:30;;;;;;;10.05;5.53;;;;;;;9.01;82.91;100053.69;8505072;33;21300;-72
2020/12/21 18:20:34;;;;;;;7.93;4.40;;;;;;;9.07;82.61;100026.63;8504373;33;20448;-72
2020/12/21 18:25:36;;;;;;;11.13;6.20;;;;;;;9.18;82.36;100024.09;8499943;33;20479;-72
2020/12/21 18:30:39;;;;;;;10.80;6.07;;;;;;;9.23;81.16;100014.00;8504509;33;20167;-72
2020/12/21 18:35:42;;;;;;;9.90;5.53;;;;;;;9.38;80.36;100011.25;8505197;33;20212;-72
2020/12/21 18:40:45;;;;;;;8.65;4.53;;;;;;;9.44;79.48;100010.84;8504346;33;20464;-72
2020/12/21 18:45:47;;;;;;;7.80;4.00;;;;;;;9.53;78.20;100020.88;8506418;33;20433;-72
2020/12/21 18:50:50;;;;;;;7.65;4.50;;;;;;;9.75;78.68;99998.91;8503979;33;20751;-72
2020/12/21 18:55:52;;;;;;;6.38;3.45;;;;;;;9.61;78.15;99970.53;8508005;33;20160;-72
2020/12/21 19:00:55;;;;;;;8.00;4.05;;;;;;;9.79;78.08;99977.28;8504088;33;20167;-71
2020/12/21 19:06:00;;;;;;;9.90;4.57;;;;;;;9.75;78.03;99966.91;8502684;33;20707;-71
2020/12/21 19:11:03;;;;;;;4.95;3.53;;;;;;;9.82;77.96;99964.66;8507166;33;20192;-71
2020/12/21 19:16:06;;;;;;;7.63;4.35;;;;;;;9.79;78.38;99966.59;8510959;33;20145;-71
2020/12/21 19:21:16;;;;;;;7.70;3.90;;;;;;;9.94;78.72;99951.31;8509518;33;20188;-72
2020/12/21 19:26:19;;;;;;;5.47;3.85;;;;;;;9.85;78.57;99962.63;8510120;33;20423;-71
2020/12/21 19:31:22;;;;;;;5.35;3.55;;;;;;;9.88;78.48;99956.22;8510050;33;20477;-72
2020/12/21 19:36:25;;;;;;;4.05;2.92;;;;;;;9.88;78.34;99956.22;8510812;33;20425;-71
2020/12/21 19:41:27;;;;;;;3.63;3.25;;;;;;;9.91;78.32;99951.53;8500889;33;20420;-72
2020/12/21 19:46:31;;;;;;;3.42;2.88;;;;;;;9.81;79.58;99939.78;8502031;33;20256;-72
2020/12/21 19:51:35;;;;;;;3.92;2.78;;;;;;;9.64;80.54;99930.31;8491147;33;20148;-71
2020/12/21 19:56:40;;;;;;;6.13;3.50;;;;;;;9.69;80.92;99930.84;8489627;33;20424;-71
2020/12/21 20:01:43;;;;;;;4.70;2.90;;;;;;;9.72;81.57;99943.13;8491438;33;20573;-71
2020/12/21 20:06:49;;;;;;;5.15;3.70;;;;;;;9.62;82.18;99942.88;8502646;33;20884;-71
2020/12/21 20:11:51;;;;;;;5.57;3.45;;;;;;;9.61;82.59;99924.34;8503497;33;20141;-70
2020/12/21 20:16:54;;;;;;;3.92;3.03;;;;;;;9.53;83.14;99911.53;8503020;33;20337;-71
2020/12/21 20:21:57;;;;;;;4.95;2.90;;;;;;;9.52;83.37;99908.03;8504634;33;20287;-70
2020/12/21 20:26:59;;;;;;;3.13;2.40;;;;;;;9.56;83.61;99887.31;8505069;33;21464;-70
2020/12/21 20:32:02;;;;;;;5.40;2.90;;;;;;;9.60;83.60;99891.50;8503880;33;20974;-71
2020/12/21 20:37:07;;;;;;;4.28;2.63;;;;;;;9.47;83.99;99878.16;8502455;33;20472;-72
2020/12/21 20:42:09;;;;;;;3.83;3.17;;;;;;;9.58;83.91;99864.06;8494861;33;20656;-72
2020/12/21 20:47:12;;;;;;;3.88;2.75;;;;;;;9.44;84.41;99861.53;8488553;33;20572;-72
2020/12/21 20:52:15;;;;;;;3.58;2.58;;;;;;;9.51;84.36;99860.97;8487561;33;20418;-71
2020/12/21 20:57:18;;;;;;;2.97;2.35;;;;;;;9.60;84.46;99851.50;8487493;33;20423;-73
2020/12/21 21:02:20;;;;;;;3.75;2.80;;;;;;;9.46;85.03;99841.81;8487976;33;20172;-72
2020/12/21 21:07:24;;;;;;;2.15;1.67;;;;;;;9.44;85.19;99824.22;8465760;33;21231;-72
2020/12/21 21:12:26;;;;;;;3.92;2.45;;;;;;;9.57;84.97;99811.69;8501424;33;20552;-72
2020/12/21 21:17:29;;;;;;;2.92;2.22;;;;;;;9.63;85.42;99807.75;8500137;33;20441;-74
2020/12/21 21:22:32;;;;;;;2.83;2.33;;;;;;;9.52;85.79;99806.69;8502154;33;20437;-74
2020/12/21 21:27:34;;;;;;;3.70;2.58;;;;;;;9.57;85.55;99798.34;8500333;33;20137;-73
2020/12/21 21:32:38;;;;;;;3.15;2.38;;;;;;;9.52;86.45;99801.38;8486135;33;20254;-74
2020/12/21 21:37:42;;;;;;;4.53;2.97;;;;;;;9.65;85.84;99779.97;8487186;33;20423;-74
2020/12/21 21:42:45;;;;;;;3.30;2.60;;;;;;;9.66;86.16;99776.38;8485948;33;21944;-74
2020/12/21 21:47:47;;;;;;;3.15;2.60;;;;;;;9.72;85.87;99775.06;8481214;33;20429;-74
2020/12/21 21:52:50;;;;;;;3.25;2.38;;;;;;;9.67;86.34;99775.38;8478128;33;20206;-74
2020/12/21 21:57:53;;;;;;;3.13;2.40;;;;;;;9.86;85.82;99768.72;8481650;33;20192;-75
2020/12/21 22:02:56;;;;;;;4.00;2.72;;;;;;;9.65;86.71;99747.97;8481897;33;20456;-74
2020/12/21 22:07:59;;;;;;;2.75;2.38;;;;;;;9.83;86.45;99747.59;8483435;33;20431;-74
2020/12/21 22:13:01;;;;;;;2.90;2.55;;;;;;;9.76;86.49;99737.38;8483769;33;20195;-73
2020/12/21 22:18:04;;;;;;;2.40;2.20;;;;;;;9.93;85.67;99744.13;8486743;33;21469;-73
2020/12/21 22:23:07;;;;;;;2.22;1.65;;;;;;;9.89;85.72;99744.47;8479403;33;20503;-73
2020/12/21 22:28:09;;;;;;;1.95;1.65;;;;;;;9.90;85.38;99748.81;8502419;33;20417;-73
2020/12/21 22:33:11;;;;;;;2.42;2.10;;;;;;;10.05;85.48;99744.19;8503184;33;20276;-74
2020/12/21 22:38:15;;;;;;;2.20;2.00;;;;;;;9.95;86.16;99752.00;8503601;33;20475;-73
2020/12/21 22:43:17;;;;;;;2.45;1.80;;;;;;;10.06;86.10;99762.75;8504307;33;20641;-72
2020/12/21 22:48:20;;;;;;;2.20;1.93;;;;;;;10.13;86.22;99749.81;8503166;33;20575;-75
2020/12/21 22:53:23;;;;;;;2.10;1.90;;;;;;;10.04;86.36;99751.34;8501050;33;20526;-75
2020/12/21 22:58:26;;;;;;;2.72;1.73;;;;;;;10.08;86.61;99739.47;8477662;33;20549;-75
2020/12/21 23:03:28;;;;;;;2.10;1.60;;;;;;;9.91;87.43;99743.41;8492027;33;20439;-74
2020/12/21 23:08:31;;;;;;;2.55;1.60;;;;;;;10.19;86.69;99736.00;8491465;33;20169;-74
2020/12/21 23:13:33;;;;;;;1.60;1.50;;;;;;;10.15;86.91;99731.88;8487407;33;20181;-74
2020/12/21 23:18:38;;;;;;;2.70;1.20;;;;;;;10.20;86.69;99725.22;8486249;33;20141;-74
2020/12/21 23:23:42;;;;;;;1.60;1.13;;;;;;;10.19;86.91;99731.50;8486438;33;20456;-74
2020/12/21 23:28:44;;;;;;;1.33;1.15;;;;;;;10.24;86.93;99728.50;8487553;33;22251;-73
2020/12/21 23:33:46;;;;;;;1.33;1.23;;;;;;;10.18;87.21;99719.13;8487612;33;20644;-73
2020/12/21 23:38:49;;;;;;;2.38;1.42;;;;;;;10.33;86.96;99721.63;8493065;33;20875;-75
2020/12/21 23:43:52;;;;;;;1.60;1.50;;;;;;;10.34;87.26;99717.97;8492520;33;20789;-75